createdAt,value
2017-06-18T00:01:14.788Z,10.40
2017-06-18T00:03:43.865Z,10.30
2017-06-18T00:06:12.957Z,10.83
2017-06-18T00:08:42.002Z,9.77
2017-06-18T00:11:11.106Z,11.87
2017-06-18T00:13:40.278Z,10.40
2017-06-18T00:16:09.384Z,10.77
2017-06-18T00:18:38.464Z,10.43
2017-06-18T00:21:07.507Z,11.23
2017-06-18T00:23:36.588Z,10.77
2017-06-18T00:26:05.644Z,11.93
2017-06-18T00:28:34.712Z,10.70
2017-06-18T00:31:03.813Z,10.50
2017-06-18T00:33:32.888Z,16.73
2017-06-18T00:36:01.948Z,12.50
2017-06-18T00:38:31.042Z,10.60
2017-06-18T00:41:00.345Z,11.57
2017-06-18T00:43:29.644Z,11.90
2017-06-18T00:45:58.731Z,12.80
2017-06-18T00:48:27.796Z,13.40
2017-06-18T00:50:56.868Z,12.33
2017-06-18T00:53:25.926Z,13.93
2017-06-18T00:55:55.016Z,11.63
2017-06-18T00:58:24.099Z,12.70
2017-06-18T01:00:53.173Z,14.47
2017-06-18T01:03:22.233Z,14.23
2017-06-18T01:05:51.317Z,14.93
2017-06-18T01:08:20.406Z,13.63
2017-06-18T01:10:49.483Z,14.30
2017-06-18T01:13:18.543Z,12.83
2017-06-18T01:15:47.622Z,14.40
2017-06-18T01:18:16.717Z,13.67
2017-06-18T01:20:45.746Z,13.03
2017-06-18T01:23:15.048Z,13.57
2017-06-18T01:25:44.107Z,15.70
2017-06-18T01:28:13.190Z,14.37
2017-06-18T01:30:42.255Z,14.87
2017-06-18T01:33:11.348Z,16.13
2017-06-18T01:35:40.442Z,16.17
2017-06-18T01:38:09.495Z,15.97
2017-06-18T01:40:38.565Z,17.23
2017-06-18T01:43:07.718Z,18.33
2017-06-18T01:45:36.774Z,19.17
2017-06-18T01:48:05.881Z,19.80
2017-06-18T01:50:34.963Z,18.37
2017-06-18T01:53:04.035Z,16.90
2017-06-18T01:55:33.108Z,18.50
2017-06-18T01:58:02.179Z,18.47
2017-06-18T02:00:31.281Z,21.40
2017-06-18T02:03:00.363Z,16.77
2017-06-18T02:05:29.412Z,17.07
2017-06-18T02:07:58.508Z,19.50
2017-06-18T02:10:27.575Z,16.40
2017-06-18T02:12:56.652Z,17.57
2017-06-18T02:15:25.744Z,19.40
2017-06-18T02:17:54.837Z,17.07
2017-06-18T02:20:24.143Z,19.27
2017-06-18T02:22:53.195Z,17.80
2017-06-18T02:25:22.281Z,18.90
2017-06-18T02:27:51.477Z,17.17
2017-06-18T02:30:20.555Z,18.60
2017-06-18T02:32:49.620Z,17.70
2017-06-18T02:35:18.697Z,17.40
2017-06-18T02:37:47.750Z,18.07
2017-06-18T02:40:16.885Z,17.90
2017-06-18T02:42:45.928Z,19.50
2017-06-18T02:45:15.027Z,17.47
2017-06-18T02:47:44.096Z,18.77
2017-06-18T02:50:13.169Z,19.83
2017-06-18T02:52:42.237Z,17.03
2017-06-18T02:55:11.287Z,17.80
2017-06-18T02:57:40.347Z,16.97
2017-06-18T03:00:09.481Z,20.10
2017-06-18T03:02:38.773Z,17.13
2017-06-18T03:05:07.862Z,16.97
2017-06-18T03:07:36.965Z,18.27
2017-06-18T03:10:23.636Z,17.13
2017-06-18T03:12:52.676Z,16.70
2017-06-18T03:15:21.745Z,16.47
2017-06-18T03:17:50.816Z,17.40
2017-06-18T03:20:20.080Z,16.40
2017-06-18T03:22:54.571Z,17.23
2017-06-18T03:25:23.690Z,16.50
2017-06-18T03:27:52.728Z,16.70
2017-06-18T03:30:21.987Z,15.80
2017-06-18T03:32:51.068Z,15.27
2017-06-18T03:35:20.122Z,16.33
2017-06-18T03:37:49.188Z,17.43
2017-06-18T03:40:18.267Z,17.93
2017-06-18T03:42:47.388Z,17.23
2017-06-18T03:45:16.443Z,19.57
2017-06-18T03:47:45.503Z,16.83
2017-06-18T03:50:14.636Z,16.50
2017-06-18T03:52:43.733Z,18.27
2017-06-18T03:55:12.809Z,16.83
2017-06-18T03:57:41.874Z,14.47
2017-06-18T04:00:10.961Z,15.80
2017-06-18T04:02:40.046Z,16.87
2017-06-18T04:05:09.105Z,18.23
2017-06-18T04:07:38.208Z,17.63
2017-06-18T04:10:07.270Z,17.87
2017-06-18T04:12:36.308Z,19.10
2017-06-18T04:15:05.401Z,18.10
2017-06-18T04:17:34.460Z,17.57
2017-06-18T04:20:03.548Z,16.50
2017-06-18T04:22:32.640Z,14.97
2017-06-18T04:25:01.707Z,16.27
2017-06-18T04:27:30.775Z,14.80
2017-06-18T04:29:59.832Z,18.80
2017-06-18T04:32:28.915Z,17.73
2017-06-18T04:34:57.975Z,16.10
2017-06-18T04:37:27.036Z,19.97
2017-06-18T04:39:56.100Z,16.20
2017-06-18T04:42:25.168Z,14.80
2017-06-18T04:44:54.223Z,16.90
2017-06-18T04:47:23.280Z,16.43
2017-06-18T04:49:52.371Z,17.23
2017-06-18T04:52:21.452Z,18.33
2017-06-18T04:54:50.526Z,17.07
2017-06-18T04:57:19.614Z,19.83
2017-06-18T04:59:48.655Z,16.50
2017-06-18T05:02:17.729Z,15.57
2017-06-18T05:04:46.824Z,18.23
2017-06-18T05:07:15.935Z,22.00
2017-06-18T05:09:45.013Z,20.97
2017-06-18T05:12:14.083Z,19.60
2017-06-18T05:14:43.140Z,22.20
2017-06-18T05:17:12.277Z,22.63
2017-06-18T05:19:41.321Z,20.70
2017-06-18T05:22:10.391Z,20.67
2017-06-18T05:24:39.484Z,24.33
2017-06-18T05:27:08.569Z,27.83
2017-06-18T05:29:37.639Z,23.90
2017-06-18T05:32:06.952Z,24.50
2017-06-18T05:34:36.037Z,24.80
2017-06-18T05:37:05.189Z,23.27
2017-06-18T05:39:34.232Z,27.60
2017-06-18T05:42:03.297Z,23.87
2017-06-18T05:44:32.392Z,27.23
2017-06-18T05:47:01.451Z,23.10
2017-06-18T05:49:30.543Z,19.30
2017-06-18T05:51:59.639Z,19.27
2017-06-18T05:54:28.710Z,20.70
2017-06-18T05:56:57.794Z,20.00
2017-06-18T05:59:26.857Z,17.90
2017-06-18T06:01:55.909Z,19.37
2017-06-18T06:04:24.980Z,19.17
2017-06-18T06:06:54.070Z,17.03
2017-06-18T06:09:23.204Z,17.33
2017-06-18T06:11:52.292Z,15.60
2017-06-18T06:14:21.359Z,15.17
2017-06-18T06:16:50.441Z,16.27
2017-06-18T06:19:19.508Z,17.53
2017-06-18T06:21:48.548Z,15.03
2017-06-18T06:24:17.644Z,15.60
2017-06-18T06:26:46.708Z,15.30
2017-06-18T06:29:15.886Z,12.90
2017-06-18T06:31:44.968Z,14.10
2017-06-18T06:34:14.080Z,11.63
2017-06-18T06:36:43.155Z,12.17
2017-06-18T06:39:12.246Z,14.47
2017-06-18T06:41:41.313Z,11.23
2017-06-18T06:44:10.369Z,13.17
2017-06-18T06:46:39.460Z,10.03
2017-06-18T06:49:08.541Z,8.87
2017-06-18T06:51:37.602Z,11.63
2017-06-18T06:54:06.748Z,9.83
2017-06-18T06:56:35.783Z,9.10
2017-06-18T06:59:04.847Z,9.43
2017-06-18T07:01:33.908Z,8.37
2017-06-18T07:04:02.949Z,8.50
2017-06-18T07:06:32.062Z,11.13
2017-06-18T07:09:01.104Z,7.50
2017-06-18T07:11:30.154Z,7.17
2017-06-18T07:13:59.215Z,9.30
2017-06-18T07:16:28.323Z,6.60
2017-06-18T07:18:57.892Z,6.97
2017-06-18T07:21:26.995Z,5.50
2017-06-18T07:23:56.812Z,6.70
2017-06-18T07:26:25.823Z,8.13
2017-06-18T07:28:54.884Z,7.03
2017-06-18T07:31:23.955Z,7.27
2017-06-18T07:33:53.061Z,7.60
2017-06-18T07:36:22.088Z,8.77
2017-06-18T07:38:51.156Z,6.50
2017-06-18T07:41:20.224Z,7.00
2017-06-18T07:43:49.296Z,6.00
2017-06-18T07:46:18.365Z,8.20
2017-06-18T07:48:47.415Z,6.37
2017-06-18T07:51:16.584Z,7.30
2017-06-18T07:53:45.633Z,8.57
2017-06-18T07:56:14.696Z,7.20
2017-06-18T07:58:43.772Z,6.43
2017-06-18T08:01:12.820Z,5.67
2017-06-18T08:03:41.892Z,4.87
2017-06-18T08:06:10.955Z,5.90
2017-06-18T08:08:40.007Z,5.00
2017-06-18T08:11:09.100Z,6.60
2017-06-18T08:13:38.140Z,5.10
2017-06-18T08:16:07.216Z,5.40
2017-06-18T08:18:36.278Z,7.13
2017-06-18T08:21:05.514Z,8.17
2017-06-18T08:23:34.565Z,8.50
2017-06-18T08:26:03.637Z,7.37
2017-06-18T08:28:31.990Z,7.37
2017-06-18T08:31:00.880Z,7.27
2017-06-18T08:33:29.993Z,6.33
2017-06-18T08:35:59.032Z,7.10
2017-06-18T08:38:28.084Z,7.10
2017-06-18T08:40:57.175Z,6.80
2017-06-18T08:43:26.240Z,5.43
2017-06-18T08:45:55.316Z,5.73
2017-06-18T08:48:24.354Z,5.10
2017-06-18T08:50:53.400Z,5.80
2017-06-18T08:53:22.475Z,5.27
2017-06-18T08:55:51.552Z,5.90
2017-06-18T08:58:20.605Z,5.03
2017-06-18T09:00:49.649Z,4.70
2017-06-18T09:03:18.724Z,4.60
2017-06-18T09:05:47.781Z,4.53
2017-06-18T09:08:16.865Z,5.10
2017-06-18T09:10:45.929Z,5.23
2017-06-18T09:13:14.987Z,5.27
2017-06-18T09:15:44.125Z,4.47
2017-06-18T09:18:13.172Z,4.57
2017-06-18T09:20:42.238Z,6.77
2017-06-18T09:23:11.334Z,4.40
2017-06-18T09:25:40.383Z,4.30
2017-06-18T09:28:09.430Z,4.33
2017-06-18T09:30:38.485Z,4.00
2017-06-18T09:33:07.568Z,4.60
2017-06-18T09:35:36.635Z,4.37
2017-06-18T09:38:05.798Z,6.87
2017-06-18T09:40:34.820Z,3.43
2017-06-18T09:43:03.935Z,4.07
2017-06-18T09:45:32.987Z,3.93
2017-06-18T09:48:02.044Z,4.30
2017-06-18T09:50:31.105Z,3.10
2017-06-18T09:53:00.161Z,4.00
2017-06-18T09:55:29.233Z,3.77
2017-06-18T09:57:58.296Z,3.40
2017-06-18T10:00:27.362Z,3.90
2017-06-18T10:02:56.434Z,3.80
2017-06-18T10:05:25.546Z,4.70
2017-06-18T10:07:54.636Z,4.50
2017-06-18T10:10:23.696Z,3.87
2017-06-18T10:12:52.765Z,3.70
2017-06-18T10:15:21.839Z,3.70
2017-06-18T10:17:50.904Z,3.80
2017-06-18T10:20:19.988Z,3.90
2017-06-18T10:22:49.487Z,3.43
2017-06-18T10:25:18.549Z,3.60
2017-06-18T10:27:47.608Z,3.50
2017-06-18T10:30:16.692Z,3.43
2017-06-18T10:32:45.732Z,3.23
2017-06-18T10:35:14.836Z,3.40
2017-06-18T10:37:43.893Z,3.30
2017-06-18T10:40:12.973Z,3.80
2017-06-18T10:42:42.024Z,3.00
2017-06-18T10:45:11.128Z,3.30
2017-06-18T10:47:40.185Z,3.00
2017-06-18T10:50:09.251Z,3.03
2017-06-18T10:52:38.361Z,3.20
2017-06-18T10:55:07.457Z,3.80
2017-06-18T10:57:36.533Z,4.00
2017-06-18T11:00:05.598Z,3.30
2017-06-18T11:02:34.673Z,3.77
2017-06-18T11:05:03.725Z,2.90
2017-06-18T11:07:32.791Z,2.80
2017-06-18T11:10:01.848Z,3.30
2017-06-18T11:12:30.933Z,3.47
2017-06-18T11:15:00.016Z,5.33
2017-06-18T11:17:29.061Z,4.30
2017-06-18T11:19:58.108Z,3.90
2017-06-18T11:22:27.192Z,3.87
2017-06-18T11:24:56.236Z,3.70
2017-06-18T11:27:25.287Z,3.30
2017-06-18T11:29:54.368Z,3.80
2017-06-18T11:32:23.416Z,3.50
2017-06-18T11:34:52.489Z,3.53
2017-06-18T11:37:21.568Z,4.70
2017-06-18T11:39:50.644Z,5.00
2017-06-18T11:42:19.702Z,2.93
2017-06-18T11:44:48.789Z,3.00
2017-06-18T11:47:17.875Z,4.03
2017-06-18T11:49:46.957Z,3.10
2017-06-18T11:52:16.041Z,3.07
2017-06-18T11:54:45.163Z,3.27
2017-06-18T11:57:14.195Z,2.57
2017-06-18T11:59:43.510Z,3.07
2017-06-18T12:02:12.563Z,5.80
2017-06-18T12:04:41.649Z,6.20
2017-06-18T12:07:10.750Z,3.60
2017-06-18T12:09:39.799Z,3.67
2017-06-18T12:12:08.874Z,3.07
2017-06-18T12:14:37.939Z,3.37
2017-06-18T12:17:07.111Z,3.43
2017-06-18T12:19:36.175Z,2.57
2017-06-18T12:22:05.420Z,7.83
2017-06-18T12:24:34.499Z,4.40
2017-06-18T12:27:03.590Z,3.40
2017-06-18T12:29:32.643Z,3.10
2017-06-18T12:32:01.704Z,4.70
2017-06-18T12:34:30.769Z,3.30
2017-06-18T12:36:59.836Z,6.43
2017-06-18T12:39:28.892Z,3.47
2017-06-18T12:41:57.940Z,3.43
2017-06-18T12:44:27.013Z,3.20
2017-06-18T12:46:56.077Z,2.73
2017-06-18T12:49:25.138Z,3.43
2017-06-18T12:51:54.226Z,3.43
2017-06-18T12:54:23.300Z,3.10
2017-06-18T12:56:52.340Z,2.70
2017-06-18T12:59:21.426Z,2.87
2017-06-18T13:01:50.496Z,2.70
2017-06-18T13:04:50.367Z,4.07
2017-06-18T13:07:19.520Z,2.60
2017-06-18T13:09:48.595Z,3.87
2017-06-18T13:12:17.699Z,2.90
2017-06-18T13:14:46.757Z,2.50
2017-06-18T13:17:15.863Z,4.97
2017-06-18T13:19:44.961Z,2.57
2017-06-18T13:22:14.256Z,2.37
2017-06-18T13:24:43.310Z,2.80
2017-06-18T13:27:13.237Z,2.43
2017-06-18T13:29:43.066Z,2.83
2017-06-18T13:32:12.135Z,3.33
2017-06-18T13:34:41.983Z,3.00
2017-06-18T13:37:11.049Z,2.70
2017-06-18T13:39:40.854Z,3.10
2017-06-18T13:42:10.749Z,2.83
2017-06-18T13:44:39.844Z,2.73
2017-06-18T13:47:08.916Z,2.73
2017-06-18T13:49:37.995Z,3.60
2017-06-18T13:52:07.092Z,2.80
2017-06-18T13:54:36.167Z,3.33
2017-06-18T13:57:05.976Z,3.23
2017-06-18T13:59:35.055Z,3.00
2017-06-18T14:02:05.083Z,4.63
2017-06-18T14:04:34.901Z,5.70
2017-06-18T14:07:04.925Z,3.03
2017-06-18T14:09:34.764Z,3.23
2017-06-18T14:12:03.886Z,3.33
2017-06-18T14:14:32.948Z,3.47
2017-06-18T14:17:02.025Z,3.10
2017-06-18T14:19:31.108Z,2.90
2017-06-18T14:22:00.924Z,7.33
2017-06-18T14:24:30.784Z,2.80
2017-06-18T14:26:59.824Z,3.00
2017-06-18T14:29:29.704Z,2.90
2017-06-18T14:31:58.772Z,3.37
2017-06-18T14:34:27.813Z,3.87
2017-06-18T14:36:57.185Z,3.67
2017-06-18T14:39:26.232Z,4.23
2017-06-18T14:41:56.189Z,3.60
2017-06-18T14:44:25.275Z,3.90
2017-06-18T14:46:54.331Z,3.57
2017-06-18T14:49:24.144Z,4.53
2017-06-18T14:51:54.019Z,3.83
2017-06-18T14:54:23.063Z,3.30
2017-06-18T14:56:52.164Z,4.27
2017-06-18T14:59:22.224Z,3.60
2017-06-18T15:01:51.300Z,3.70
2017-06-18T15:04:20.404Z,3.77
2017-06-18T15:06:49.479Z,4.40
2017-06-18T15:09:18.549Z,3.70
2017-06-18T15:11:48.396Z,3.97
2017-06-18T15:14:17.447Z,3.13
2017-06-18T15:16:47.264Z,3.80
2017-06-18T15:19:17.101Z,3.40
2017-06-18T15:21:46.183Z,4.03
2017-06-18T15:24:15.988Z,4.40
2017-06-18T15:26:45.834Z,4.13
2017-06-18T15:29:14.912Z,3.53
2017-06-18T15:31:43.977Z,4.30
2017-06-18T15:34:13.062Z,4.37
2017-06-18T15:36:42.152Z,7.57
2017-06-18T15:39:11.245Z,4.10
2017-06-18T15:41:40.337Z,3.87
2017-06-18T15:44:09.432Z,4.00
2017-06-18T15:46:38.519Z,5.40
2017-06-18T15:49:07.559Z,3.07
2017-06-18T15:51:37.412Z,3.33
2017-06-18T15:54:06.922Z,3.73
2017-06-18T15:56:35.975Z,3.73
2017-06-18T15:59:05.845Z,3.97
2017-06-18T16:01:34.993Z,3.50
2017-06-18T16:04:04.923Z,4.20
2017-06-18T16:06:34.748Z,4.00
2017-06-18T16:09:03.827Z,3.30
2017-06-18T16:11:32.875Z,3.30
2017-06-18T16:14:02.213Z,3.37
2017-06-18T16:16:32.049Z,3.43
2017-06-18T16:19:01.644Z,3.17
2017-06-18T16:21:30.708Z,6.10
2017-06-18T16:24:00.640Z,2.90
2017-06-18T16:26:29.684Z,5.67
2017-06-18T16:28:58.985Z,3.00
2017-06-18T16:31:28.118Z,3.27
2017-06-18T16:33:57.216Z,3.67
2017-06-18T16:36:26.261Z,2.90
2017-06-18T16:38:55.322Z,3.20
2017-06-18T16:41:24.414Z,3.13
2017-06-18T16:43:53.456Z,4.33
2017-06-18T16:46:22.526Z,3.23
2017-06-18T16:48:51.574Z,3.60
2017-06-18T16:51:21.003Z,3.40
2017-06-18T16:53:50.874Z,3.23
2017-06-18T16:56:19.924Z,3.73
2017-06-18T16:58:48.996Z,3.10
2017-06-18T17:01:18.824Z,2.63
2017-06-18T17:03:47.896Z,4.90
2017-06-18T17:06:17.757Z,2.60
2017-06-18T17:08:46.796Z,3.00
2017-06-18T17:11:15.887Z,3.93
2017-06-18T17:13:44.932Z,3.20
2017-06-18T17:16:13.981Z,4.47
2017-06-18T17:18:43.275Z,4.53
2017-06-18T17:21:17.622Z,2.97
2017-06-18T17:23:46.988Z,2.70
2017-06-18T17:26:16.879Z,3.60
2017-06-18T17:28:45.956Z,3.40
2017-06-18T17:31:15.005Z,4.63
2017-06-18T17:33:44.080Z,3.23
2017-06-18T17:36:14.024Z,3.10
2017-06-18T17:38:43.937Z,4.00
2017-06-18T17:41:13.298Z,3.50
2017-06-18T17:43:42.360Z,2.90
2017-06-18T17:46:11.466Z,3.60
2017-06-18T17:48:41.036Z,4.23
2017-06-18T17:51:10.125Z,3.43
2017-06-18T17:53:39.201Z,3.43
2017-06-18T17:56:08.586Z,3.30
2017-06-18T17:58:37.636Z,3.50
2017-06-18T18:01:06.725Z,4.40
2017-06-18T18:03:35.764Z,3.80
2017-06-18T18:06:04.853Z,3.67
2017-06-18T18:08:33.933Z,5.00
2017-06-18T18:11:03.015Z,3.67
2017-06-18T18:13:32.106Z,3.43
2017-06-18T18:16:01.171Z,3.10
2017-06-18T18:18:30.260Z,3.47
2017-06-18T18:20:59.332Z,7.50
2017-06-18T18:23:28.395Z,3.97
2017-06-18T18:25:57.491Z,6.37
2017-06-18T18:28:26.535Z,3.90
2017-06-18T18:30:55.640Z,3.40
2017-06-18T18:33:24.704Z,3.23
2017-06-18T18:35:53.790Z,3.87
2017-06-18T18:38:22.856Z,3.70
2017-06-18T18:40:51.940Z,4.57
2017-06-18T18:43:21.026Z,3.70
2017-06-18T18:45:50.096Z,4.10
2017-06-18T18:48:19.143Z,3.30
2017-06-18T18:50:48.227Z,3.30
2017-06-18T18:53:17.370Z,2.80
2017-06-18T18:55:46.453Z,3.37
2017-06-18T18:58:15.553Z,3.20
2017-06-18T19:00:44.608Z,3.93
2017-06-18T19:03:13.663Z,9.60
2017-06-18T19:05:42.804Z,3.53
2017-06-18T19:08:12.809Z,3.40
2017-06-18T19:10:42.074Z,3.23
2017-06-18T19:13:11.159Z,3.90
2017-06-18T19:15:40.236Z,5.87
2017-06-18T19:18:09.340Z,3.70
2017-06-18T19:20:38.404Z,4.90
2017-06-18T19:23:08.256Z,5.10
2017-06-18T19:25:37.333Z,4.20
2017-06-18T19:28:06.431Z,3.80
2017-06-18T19:30:35.488Z,4.43
2017-06-18T19:33:04.705Z,3.70
2017-06-18T19:35:34.533Z,3.90
2017-06-18T19:38:03.597Z,4.10
2017-06-18T19:40:33.466Z,4.00
2017-06-18T19:43:02.524Z,3.97
2017-06-18T19:45:31.603Z,4.03
2017-06-18T19:48:01.432Z,4.20
2017-06-18T19:50:30.499Z,4.30
2017-06-18T19:52:59.580Z,4.50
2017-06-18T19:55:28.647Z,4.87
2017-06-18T19:57:57.739Z,3.87
2017-06-18T20:00:26.830Z,4.20
2017-06-18T20:02:55.868Z,4.47
2017-06-18T20:05:24.975Z,3.97
2017-06-18T20:07:54.030Z,4.83
2017-06-18T20:10:23.358Z,5.50
2017-06-18T20:12:52.457Z,3.67
2017-06-18T20:15:21.546Z,4.63
2017-06-18T20:17:50.592Z,4.30
2017-06-18T20:20:19.659Z,3.80
2017-06-18T20:22:49.497Z,4.00
2017-06-18T20:25:18.590Z,3.83
2017-06-18T20:27:48.444Z,4.63
2017-06-18T20:30:17.499Z,4.30
2017-06-18T20:32:46.573Z,3.93
2017-06-18T20:35:16.127Z,4.03
2017-06-18T20:37:45.546Z,3.97
2017-06-18T20:40:14.974Z,4.23
2017-06-18T20:42:44.391Z,4.07
2017-06-18T20:45:14.647Z,4.30
2017-06-18T20:47:43.890Z,4.17
2017-06-18T20:50:12.946Z,3.63
2017-06-18T20:52:42.499Z,3.60
2017-06-18T20:55:12.367Z,3.53
2017-06-18T20:57:41.445Z,3.40
2017-06-18T21:00:10.498Z,4.60
2017-06-18T21:02:39.579Z,3.77
2017-06-18T21:05:08.717Z,4.37
2017-06-18T21:07:38.012Z,3.33
2017-06-18T21:10:07.234Z,3.40
2017-06-18T21:12:36.413Z,4.70
2017-06-18T21:15:05.864Z,3.70
2017-06-18T21:17:34.920Z,3.70
2017-06-18T21:20:04.010Z,5.17
2017-06-18T21:22:33.095Z,3.90
2017-06-18T21:25:02.924Z,4.37
2017-06-18T21:27:32.090Z,3.87
2017-06-18T21:30:01.925Z,3.60
2017-06-18T21:32:30.984Z,3.50
2017-06-18T21:35:00.080Z,3.70
2017-06-18T21:37:29.135Z,3.67
2017-06-18T21:39:58.404Z,3.43
2017-06-18T21:42:28.069Z,3.53
2017-06-18T21:44:57.131Z,3.77
2017-06-18T21:47:27.016Z,3.47
2017-06-18T21:49:56.821Z,4.13
2017-06-18T21:52:26.727Z,4.90
2017-06-18T21:54:56.519Z,4.13
2017-06-18T21:57:25.588Z,3.97
2017-06-18T21:59:54.668Z,3.70
2017-06-18T22:02:23.728Z,3.87
2017-06-18T22:04:53.807Z,4.07
2017-06-18T22:07:22.875Z,4.10
2017-06-18T22:09:51.944Z,4.00
2017-06-18T22:12:21.781Z,3.83
2017-06-18T22:14:50.838Z,3.70
2017-06-18T22:17:19.900Z,3.90
2017-06-18T22:19:49.492Z,4.10
2017-06-18T22:22:18.582Z,3.77
2017-06-18T22:24:47.644Z,3.80
2017-06-18T22:27:17.511Z,3.87
2017-06-18T22:29:46.555Z,4.50
2017-06-18T22:32:16.425Z,3.60
2017-06-18T22:34:45.469Z,3.97
2017-06-18T22:37:14.554Z,4.20
2017-06-18T22:39:44.401Z,3.83
2017-06-18T22:42:13.489Z,3.70
2017-06-18T22:44:42.553Z,4.20
2017-06-18T22:47:12.409Z,4.33
2017-06-18T22:49:41.462Z,4.23
2017-06-18T22:52:11.296Z,4.73
2017-06-18T22:54:40.440Z,4.30
2017-06-18T22:57:09.626Z,3.80
2017-06-18T22:59:38.652Z,4.53
2017-06-18T23:02:07.740Z,4.27
2017-06-18T23:04:36.796Z,3.90
2017-06-18T23:07:06.163Z,3.77
2017-06-18T23:09:35.992Z,3.33
2017-06-18T23:12:05.058Z,4.10
2017-06-18T23:14:34.888Z,4.03
2017-06-18T23:17:03.995Z,4.80
2017-06-18T23:19:33.061Z,4.60
2017-06-18T23:22:02.125Z,3.83
2017-06-18T23:24:31.168Z,4.20
2017-06-18T23:27:00.218Z,3.70
2017-06-18T23:29:29.288Z,4.37
2017-06-18T23:31:58.357Z,4.00
2017-06-18T23:34:28.194Z,4.00
2017-06-18T23:36:57.283Z,4.20
2017-06-18T23:39:26.646Z,4.33
2017-06-18T23:41:55.701Z,4.17
2017-06-18T23:44:24.719Z,4.63
2017-06-18T23:46:53.806Z,4.10
2017-06-18T23:49:23.192Z,4.57
2017-06-18T23:51:52.257Z,4.70
2017-06-18T23:54:21.332Z,5.40
2017-06-18T23:56:51.145Z,4.03
2017-06-18T23:59:20.979Z,4.10
